Itapeva, Brazil
Current Conditions -  °F | °C
As of 6:00 AM on Saturday 25 Oct 2014 (Local Time) from SBSJ Reporting Station
Broken Clouds Broken Clouds  
Wind Chill: 68°   Ceiling: 10000
Heat Index: 68°   Visibility: 4mi
Dew Point: 61°   Wind: 3mph
Humidity: 78%   Direction: 170°S
Pressure: 29.97"   Gusts: NA
Location:  22.77°S, 46.22°W
Report Text: SBSJ 250800Z 17003KT 6000 FEW010 BKN100 20/16 Q1015
Loading
Personal Weather Stations






























Interactive Weather Map
Tropical Storm Tracking
New forecast layout! Learn more

10-Day Weather Forecast

Advertisements
Track Severe Weather on mobile